createdAt,value
2023-03-17T00:02:10.016Z,7.67
2023-03-17T00:04:38.555Z,7.53
2023-03-17T00:07:08.646Z,6.13
2023-03-17T00:09:37.014Z,7.67
2023-03-17T00:12:11.674Z,5.90
2023-03-17T00:14:40.498Z,5.40
2023-03-17T00:17:14.182Z,5.80
2023-03-17T00:19:44.747Z,5.73
2023-03-17T00:22:19.868Z,6.40
2023-03-17T00:24:48.486Z,6.87
2023-03-17T00:27:17.951Z,6.40
2023-03-17T00:29:47.051Z,5.57
2023-03-17T00:32:19.425Z,6.43
2023-03-17T00:34:48.082Z,5.90
2023-03-17T00:37:20.172Z,6.60
2023-03-17T00:39:49.409Z,5.60
2023-03-17T00:42:17.738Z,7.30
2023-03-17T00:44:47.091Z,6.30
2023-03-17T00:47:15.693Z,6.10
2023-03-17T00:49:44.198Z,6.20
2023-03-17T00:52:13.111Z,5.80
2023-03-17T00:54:44.297Z,7.00
2023-03-17T00:57:13.078Z,5.70
2023-03-17T00:59:43.336Z,7.37
2023-03-17T01:02:13.888Z,6.60
2023-03-17T01:04:47.776Z,10.23
2023-03-17T01:07:21.751Z,5.10
2023-03-17T01:09:51.871Z,5.63
2023-03-17T01:12:20.713Z,6.50
2023-03-17T01:14:50.711Z,6.07
2023-03-17T01:17:23.103Z,6.73
2023-03-17T01:19:51.541Z,8.40
2023-03-17T01:22:20.444Z,8.30
2023-03-17T01:24:50.285Z,5.97
2023-03-17T01:27:19.693Z,5.70
2023-03-17T01:29:48.034Z,6.50
2023-03-17T01:32:16.405Z,5.63
2023-03-17T01:34:44.780Z,5.47
2023-03-17T01:37:13.532Z,5.60
2023-03-17T01:39:42.099Z,9.57
2023-03-17T01:42:12.010Z,5.67
2023-03-17T01:45:02.618Z,7.37
2023-03-17T01:47:32.123Z,7.43
2023-03-17T01:50:06.264Z,8.17
2023-03-17T01:52:36.529Z,5.83
2023-03-17T01:55:08.046Z,5.00
2023-03-17T01:57:42.410Z,6.50
2023-03-17T02:00:14.705Z,5.90
2023-03-17T02:02:46.317Z,9.73
2023-03-17T02:05:18.268Z,8.13
2023-03-17T02:07:47.922Z,8.73
2023-03-17T02:10:19.333Z,7.07
2023-03-17T02:12:52.484Z,7.67
2023-03-17T02:15:21.523Z,7.43
2023-03-17T02:17:50.712Z,7.40
2023-03-17T02:21:15.468Z,8.13
2023-03-17T02:23:45.436Z,6.33
2023-03-17T02:26:13.946Z,7.67
2023-03-17T02:28:46.047Z,9.87
2023-03-17T02:31:14.574Z,7.03
2023-03-17T02:33:43.580Z,7.70
2023-03-17T02:36:11.974Z,8.37
2023-03-17T02:38:40.412Z,6.83
2023-03-17T02:41:10.651Z,9.97
2023-03-17T02:43:39.013Z,6.60
2023-03-17T02:46:07.495Z,8.57
2023-03-17T02:48:38.135Z,5.77
2023-03-17T02:51:07.039Z,6.43
2023-03-17T02:53:35.547Z,5.60
2023-03-17T02:56:03.919Z,7.17
2023-03-17T02:58:33.749Z,9.20
2023-03-17T03:01:02.299Z,6.13
2023-03-17T03:03:31.181Z,6.57
2023-03-17T03:06:01.576Z,7.33
2023-03-17T03:08:32.120Z,7.13
2023-03-17T03:11:02.491Z,9.50
2023-03-17T03:13:31.209Z,5.67
2023-03-17T03:16:01.206Z,10.17
2023-03-17T03:18:29.680Z,6.57
2023-03-17T03:20:58.079Z,7.53
2023-03-17T03:23:26.431Z,6.37
2023-03-17T03:25:54.859Z,8.87
2023-03-17T03:28:23.287Z,6.30
2023-03-17T03:30:52.032Z,8.23
2023-03-17T03:33:21.808Z,5.70
2023-03-17T03:35:50.533Z,9.70
2023-03-17T03:38:19.308Z,5.63
2023-03-17T03:40:47.832Z,7.13
2023-03-17T03:43:23.406Z,7.30
2023-03-17T03:45:52.497Z,6.90
2023-03-17T03:48:23.162Z,6.60
2023-03-17T03:50:51.537Z,8.93
2023-03-17T03:53:20.095Z,7.67
2023-03-17T03:55:48.500Z,8.20
2023-03-17T03:58:16.922Z,8.57
2023-03-17T04:00:45.672Z,6.50
2023-03-17T04:03:14.502Z,6.47
2023-03-17T04:05:44.354Z,6.80
2023-03-17T04:08:12.836Z,8.90
2023-03-17T04:10:41.215Z,6.07
2023-03-17T04:13:09.673Z,7.23
2023-03-17T04:15:38.094Z,7.27
2023-03-17T04:18:06.664Z,7.27
2023-03-17T04:20:35.209Z,7.30
2023-03-17T04:23:04.990Z,9.37
2023-03-17T04:25:33.629Z,6.30
2023-03-17T04:28:02.054Z,8.13
2023-03-17T04:30:30.713Z,8.20
2023-03-17T04:32:59.420Z,8.00
2023-03-17T04:35:28.057Z,5.83
2023-03-17T04:37:56.484Z,6.20
2023-03-17T04:40:27.085Z,10.33
2023-03-17T04:42:55.534Z,6.83
2023-03-17T04:45:24.586Z,12.90
2023-03-17T04:47:53.022Z,6.50
2023-03-17T04:50:21.723Z,8.97
2023-03-17T04:52:50.202Z,7.50
2023-03-17T04:55:18.899Z,7.03
2023-03-17T04:57:48.743Z,7.17
2023-03-17T05:00:18.276Z,7.33
2023-03-17T05:02:46.809Z,9.10
2023-03-17T05:05:15.278Z,7.40
2023-03-17T05:07:44.936Z,6.93
2023-03-17T05:10:14.077Z,7.57
2023-03-17T05:12:42.725Z,7.80
2023-03-17T05:15:13.294Z,8.37
2023-03-17T05:17:41.974Z,6.60
2023-03-17T05:20:12.410Z,8.03
2023-03-17T05:22:41.738Z,7.33
2023-03-17T05:25:10.789Z,7.37
2023-03-17T05:27:39.536Z,6.90
2023-03-17T05:30:09.874Z,7.60
2023-03-17T05:32:40.463Z,6.70
2023-03-17T05:35:10.024Z,8.50
2023-03-17T05:37:38.759Z,9.47
2023-03-17T05:40:08.402Z,8.17
2023-03-17T05:42:36.932Z,7.50
2023-03-17T05:45:07.325Z,7.97
2023-03-17T05:47:36.237Z,7.13
2023-03-17T05:50:08.075Z,7.77
2023-03-17T05:52:36.897Z,9.27
2023-03-17T05:55:06.112Z,9.80
2023-03-17T05:57:34.888Z,7.27
2023-03-17T06:00:05.546Z,7.80
2023-03-17T06:02:35.479Z,7.57
2023-03-17T06:05:06.337Z,7.13
2023-03-17T06:07:48.497Z,7.47
2023-03-17T06:10:19.846Z,9.80
2023-03-17T06:12:48.556Z,9.63
2023-03-17T06:15:17.672Z,15.23
2023-03-17T06:17:46.140Z,8.13
2023-03-17T06:20:16.848Z,8.00
2023-03-17T06:23:02.292Z,8.00
2023-03-17T06:25:32.673Z,8.00
2023-03-17T06:28:02.424Z,7.53
2023-03-17T06:30:32.879Z,10.07
2023-03-17T06:33:02.147Z,8.17
2023-03-17T06:35:33.474Z,8.10
2023-03-17T06:38:03.568Z,9.30
2023-03-17T06:40:34.103Z,8.00
2023-03-17T06:43:03.134Z,8.27
2023-03-17T06:45:32.947Z,10.57
2023-03-17T06:48:01.741Z,7.13
2023-03-17T06:50:31.790Z,9.23
2023-03-17T06:53:00.399Z,8.07
2023-03-17T06:55:29.318Z,7.40
2023-03-17T06:57:59.030Z,8.23
2023-03-17T07:00:28.720Z,10.40
2023-03-17T07:02:57.824Z,9.57
2023-03-17T07:05:26.419Z,8.03
2023-03-17T07:07:56.114Z,10.43
2023-03-17T07:10:24.824Z,8.10
2023-03-17T07:12:53.469Z,16.77
2023-03-17T07:15:22.257Z,9.17
2023-03-17T07:17:50.692Z,8.33
2023-03-17T07:20:20.800Z,11.80
2023-03-17T07:22:49.332Z,8.10
2023-03-17T07:25:19.642Z,10.80
2023-03-17T07:27:48.126Z,11.63
2023-03-17T07:30:19.178Z,10.80
2023-03-17T07:32:48.204Z,9.77
2023-03-17T07:35:17.648Z,8.90
2023-03-17T07:37:46.208Z,11.50
2023-03-17T07:40:15.233Z,9.77
2023-03-17T07:42:45.534Z,11.70
2023-03-17T07:45:14.379Z,10.43
2023-03-17T07:47:43.042Z,9.47
2023-03-17T07:50:12.661Z,8.43
2023-03-17T07:52:41.889Z,8.80
2023-03-17T07:55:12.446Z,6.97
2023-03-17T07:57:41.423Z,7.63
2023-03-17T08:00:13.691Z,8.00
2023-03-17T08:02:42.361Z,12.30
2023-03-17T08:05:11.951Z,6.20
2023-03-17T08:07:40.728Z,7.43
2023-03-17T08:10:12.922Z,8.13
2023-03-17T08:12:42.684Z,7.03
2023-03-17T08:15:13.846Z,6.23
2023-03-17T08:17:42.276Z,6.27
2023-03-17T08:20:13.005Z,6.23
2023-03-17T08:22:41.952Z,6.00
2023-03-17T08:25:11.480Z,7.40
2023-03-17T08:27:40.735Z,9.50
2023-03-17T08:30:12.957Z,6.60
2023-03-17T08:32:41.420Z,10.20
2023-03-17T08:35:15.128Z,6.30
2023-03-17T08:37:43.987Z,5.43
2023-03-17T08:40:13.913Z,4.47
2023-03-17T08:42:42.488Z,6.00
2023-03-17T08:45:13.260Z,5.73
2023-03-17T08:47:41.861Z,5.67
2023-03-17T08:50:15.595Z,5.20
2023-03-17T08:52:44.041Z,5.87
2023-03-17T08:55:13.818Z,13.30
2023-03-17T08:57:43.089Z,5.27
2023-03-17T09:00:16.078Z,4.80
2023-03-17T09:02:45.320Z,4.90
2023-03-17T09:05:15.414Z,6.63
2023-03-17T09:07:44.561Z,5.97
2023-03-17T09:10:14.912Z,7.53
2023-03-17T09:12:43.556Z,5.40
2023-03-17T09:15:14.205Z,9.33
2023-03-17T09:17:43.785Z,6.97
2023-03-17T09:20:13.818Z,4.57
2023-03-17T09:22:42.198Z,5.20
2023-03-17T09:25:11.059Z,4.97
2023-03-17T09:27:39.443Z,5.07
2023-03-17T09:30:10.473Z,7.60
2023-03-17T09:32:40.493Z,5.80
2023-03-17T09:35:09.834Z,5.33
2023-03-17T09:37:39.028Z,6.17
2023-03-17T09:40:09.315Z,5.07
2023-03-17T09:42:54.703Z,5.67
2023-03-17T09:45:34.436Z,4.47
2023-03-17T09:48:36.796Z,6.30
2023-03-17T09:51:08.633Z,4.80
2023-03-17T09:53:42.933Z,9.10
2023-03-17T09:56:16.315Z,6.30
2023-03-17T09:58:52.595Z,6.30
2023-03-17T10:01:21.615Z,5.27
2023-03-17T10:03:51.622Z,6.00
2023-03-17T10:06:34.591Z,4.73
2023-03-17T10:09:15.291Z,5.63
2023-03-17T10:11:46.011Z,4.83
2023-03-17T10:14:32.389Z,5.97
2023-03-17T10:17:05.812Z,6.47
2023-03-17T10:19:42.297Z,4.93
2023-03-17T10:22:21.818Z,4.83
2023-03-17T10:24:56.063Z,5.40
2023-03-17T10:27:24.902Z,11.77
2023-03-17T10:29:53.375Z,6.13
2023-03-17T10:32:22.527Z,5.80
2023-03-17T10:34:52.369Z,6.20
2023-03-17T10:37:24.857Z,9.43
2023-03-17T10:39:56.157Z,5.20
2023-03-17T10:42:27.544Z,4.33
2023-03-17T10:44:58.275Z,5.70
2023-03-17T10:47:39.669Z,5.80
2023-03-17T10:50:23.094Z,4.90
2023-03-17T10:52:57.870Z,8.17
2023-03-17T10:55:31.067Z,7.20
2023-03-17T10:58:06.825Z,6.03
2023-03-17T11:00:38.738Z,5.80
2023-03-17T11:03:17.762Z,8.83
2023-03-17T11:05:57.823Z,4.27
2023-03-17T11:08:26.235Z,5.17
2023-03-17T11:10:57.718Z,8.13
2023-03-17T11:13:31.269Z,6.80
2023-03-17T11:16:11.640Z,5.17
2023-03-17T11:18:41.943Z,6.00
2023-03-17T11:21:16.557Z,3.53
2023-03-17T11:23:53.947Z,4.63
2023-03-17T11:26:53.761Z,4.63
2023-03-17T11:29:29.999Z,6.07
2023-03-17T11:32:10.976Z,4.67
2023-03-17T11:34:57.078Z,6.80
2023-03-17T11:37:45.484Z,8.23
2023-03-17T11:40:21.643Z,10.90
2023-03-17T11:43:14.617Z,5.47
2023-03-17T11:45:50.827Z,6.40
2023-03-17T11:48:41.330Z,4.83
2023-03-17T11:51:20.288Z,5.63
2023-03-17T11:54:06.621Z,4.60
2023-03-17T11:56:43.445Z,6.57
2023-03-17T11:59:27.066Z,3.53
2023-03-17T12:02:04.800Z,7.20
2023-03-17T12:04:39.183Z,4.33
2023-03-17T12:07:20.678Z,3.40
2023-03-17T12:10:00.253Z,3.67
2023-03-17T12:12:34.148Z,2.87
2023-03-17T12:15:05.345Z,3.97
2023-03-17T12:17:48.700Z,3.80
2023-03-17T12:20:21.099Z,3.70
2023-03-17T12:22:57.121Z,6.77
2023-03-17T12:25:34.034Z,3.40
2023-03-17T12:28:09.407Z,5.33
2023-03-17T12:30:49.347Z,2.47
2023-03-17T12:33:26.067Z,6.60
2023-03-17T12:36:02.608Z,5.47
2023-03-17T12:38:37.932Z,8.20
2023-03-17T12:41:38.692Z,3.30
2023-03-17T12:44:19.033Z,6.13
2023-03-17T12:47:24.166Z,4.07
2023-03-17T12:50:27.088Z,3.70
2023-03-17T12:53:29.533Z,4.40
2023-03-17T12:56:08.178Z,4.23
2023-03-17T12:58:41.901Z,3.83
2023-03-17T13:01:21.424Z,3.97
2023-03-17T13:04:04.689Z,3.17
2023-03-17T13:06:40.948Z,4.97
2023-03-17T13:09:45.815Z,4.83
2023-03-17T13:12:57.306Z,4.90
2023-03-17T13:15:51.272Z,9.00
2023-03-17T13:18:48.487Z,3.40
2023-03-17T13:21:26.485Z,5.73
2023-03-17T13:24:21.040Z,4.70
2023-03-17T13:27:00.913Z,2.97
2023-03-17T13:29:48.706Z,3.13
2023-03-17T13:32:39.732Z,6.53
2023-03-17T13:35:38.693Z,4.80
2023-03-17T13:38:43.732Z,4.47
2023-03-17T13:41:49.743Z,5.20
2023-03-17T13:44:37.726Z,4.20
2023-03-17T13:47:33.489Z,3.10
2023-03-17T13:50:09.662Z,6.43
2023-03-17T13:52:43.553Z,6.20
2023-03-17T13:55:39.540Z,6.67
2023-03-17T13:58:26.439Z,8.30
2023-03-17T14:01:03.840Z,10.33
2023-03-17T14:03:41.435Z,9.03
2023-03-17T14:06:13.710Z,7.47
2023-03-17T14:08:48.246Z,7.87
2023-03-17T14:11:29.427Z,11.43
2023-03-17T14:14:32.234Z,8.53
2023-03-17T14:17:10.919Z,6.90
2023-03-17T14:19:41.825Z,10.00
2023-03-17T14:22:24.775Z,6.63
2023-03-17T14:24:54.732Z,6.40
2023-03-17T14:27:25.075Z,9.33
2023-03-17T14:29:53.904Z,8.30
2023-03-17T14:32:25.402Z,9.80
2023-03-17T14:34:59.598Z,7.10
2023-03-17T14:37:30.265Z,9.23
2023-03-17T14:40:00.229Z,9.00
2023-03-17T14:42:31.127Z,6.47
2023-03-17T14:45:05.588Z,8.80
2023-03-17T14:47:40.138Z,10.73
2023-03-17T14:50:18.089Z,8.23
2023-03-17T14:52:47.881Z,4.90
2023-03-17T14:55:19.773Z,9.60
2023-03-17T14:57:52.609Z,7.00
2023-03-17T15:00:36.541Z,7.00
2023-03-17T15:03:17.722Z,7.93
2023-03-17T15:05:47.462Z,5.27
2023-03-17T15:08:43.311Z,5.57
2023-03-17T15:11:21.518Z,5.13
2023-03-17T15:13:52.557Z,4.30
2023-03-17T15:16:25.845Z,4.60
2023-03-17T15:19:08.422Z,6.17
2023-03-17T15:21:41.404Z,6.87
2023-03-17T15:24:40.031Z,7.57
2023-03-17T15:27:15.561Z,11.27
2023-03-17T15:29:44.382Z,7.27
2023-03-17T15:32:15.811Z,5.47
2023-03-17T15:34:44.275Z,4.23
2023-03-17T15:37:21.659Z,8.17
2023-03-17T15:39:52.939Z,4.50
2023-03-17T15:42:25.715Z,5.50
2023-03-17T15:44:54.860Z,9.23
2023-03-17T15:47:27.600Z,7.03
2023-03-17T15:50:00.085Z,4.57
2023-03-17T15:52:29.641Z,5.60
2023-03-17T15:55:00.984Z,3.00
2023-03-17T15:57:29.355Z,5.63
2023-03-17T15:59:57.831Z,5.13
2023-03-17T16:02:31.825Z,5.60
2023-03-17T16:05:03.064Z,4.43
2023-03-17T16:07:31.495Z,4.43
2023-03-17T16:10:01.247Z,5.60
2023-03-17T16:12:29.892Z,4.23
2023-03-17T16:14:58.350Z,3.90
2023-03-17T16:17:30.088Z,4.20
2023-03-17T16:19:59.720Z,7.40
2023-03-17T16:22:41.864Z,10.53
2023-03-17T16:25:26.651Z,6.40
2023-03-17T16:27:57.748Z,9.30
2023-03-17T16:30:28.723Z,9.70
2023-03-17T16:33:02.209Z,7.43
2023-03-17T16:35:31.204Z,16.47
2023-03-17T16:37:59.610Z,13.97
2023-03-17T16:40:35.567Z,8.80
2023-03-17T16:43:12.894Z,14.10
2023-03-17T16:45:44.352Z,12.87
2023-03-17T16:48:15.417Z,13.23
2023-03-17T16:50:44.473Z,12.17
2023-03-17T16:53:13.332Z,10.60
2023-03-17T16:55:43.636Z,11.17
2023-03-17T16:58:19.704Z,11.20
2023-03-17T17:00:49.741Z,12.20
2023-03-17T17:03:18.478Z,10.70
2023-03-17T17:05:47.676Z,7.70
2023-03-17T17:08:16.259Z,11.40
2023-03-17T17:10:46.170Z,9.80
2023-03-17T17:13:14.745Z,12.73
2023-03-17T17:15:43.882Z,8.40
2023-03-17T17:18:17.684Z,11.80
2023-03-17T17:20:47.884Z,11.33
2023-03-17T17:23:19.014Z,12.60
2023-03-17T17:25:49.700Z,9.03
2023-03-17T17:28:22.417Z,11.70
2023-03-17T17:30:51.854Z,11.67
2023-03-17T17:33:21.216Z,9.77
2023-03-17T17:35:50.851Z,12.87
2023-03-17T17:38:23.666Z,13.50
2023-03-17T17:40:53.893Z,10.80
2023-03-17T17:43:22.358Z,12.10
2023-03-17T17:45:51.145Z,9.83
2023-03-17T17:48:23.512Z,7.80
2023-03-17T17:50:53.162Z,8.37
2023-03-17T17:53:21.822Z,12.93
2023-03-17T17:55:52.248Z,10.00
2023-03-17T17:58:23.363Z,9.97
2023-03-17T18:00:55.069Z,14.67
2023-03-17T18:03:25.276Z,15.17
2023-03-17T18:05:53.924Z,15.63
2023-03-17T18:08:22.476Z,15.93
2023-03-17T18:10:52.628Z,12.17
2023-03-17T18:13:21.280Z,8.97
2023-03-17T18:15:49.733Z,14.90
2023-03-17T18:18:18.146Z,13.33
2023-03-17T18:20:46.618Z,14.30
2023-03-17T18:23:16.043Z,17.80
2023-03-17T18:25:44.461Z,19.30
2023-03-17T18:28:14.213Z,13.53
2023-03-17T18:30:42.962Z,19.87
2023-03-17T18:33:16.346Z,18.50
2023-03-17T18:35:47.824Z,17.70
2023-03-17T18:38:16.459Z,18.03
2023-03-17T18:40:45.366Z,14.17
2023-03-17T18:43:15.442Z,15.80
2023-03-17T18:45:44.613Z,15.10
2023-03-17T18:48:13.039Z,15.60
2023-03-17T18:50:41.453Z,16.80
2023-03-17T18:53:09.826Z,16.57
2023-03-17T18:55:39.387Z,17.17
2023-03-17T18:58:07.853Z,22.97
2023-03-17T19:00:37.631Z,15.30
2023-03-17T19:03:06.267Z,18.87
2023-03-17T19:05:39.599Z,19.10
2023-03-17T19:08:08.844Z,17.67
2023-03-17T19:10:37.201Z,14.87
2023-03-17T19:13:06.180Z,14.50
2023-03-17T19:15:35.391Z,24.07
2023-03-17T19:18:05.327Z,18.70
2023-03-17T19:20:34.536Z,14.83
2023-03-17T19:23:04.419Z,12.23
2023-03-17T19:25:32.797Z,16.37
2023-03-17T19:28:03.198Z,17.73
2023-03-17T19:30:31.917Z,16.27
2023-03-17T19:33:00.783Z,12.70
2023-03-17T19:35:30.560Z,16.10
2023-03-17T19:37:59.052Z,17.33
2023-03-17T19:40:27.634Z,20.93
2023-03-17T19:42:56.133Z,18.03
2023-03-17T19:45:26.135Z,16.20
2023-03-17T19:47:54.591Z,16.00
2023-03-17T19:50:23.001Z,18.30
2023-03-17T19:52:53.299Z,22.40
2023-03-17T19:55:24.434Z,18.23
2023-03-17T19:57:52.922Z,19.73
2023-03-17T20:00:22.614Z,18.97
2023-03-17T20:02:51.705Z,21.33
2023-03-17T20:05:20.713Z,20.57
2023-03-17T20:07:49.172Z,20.33
2023-03-17T20:10:19.373Z,21.60
2023-03-17T20:12:47.710Z,21.17
2023-03-17T20:15:16.549Z,20.27
2023-03-17T20:17:45.179Z,18.17
2023-03-17T20:20:15.396Z,28.87
2023-03-17T20:22:44.045Z,19.37
2023-03-17T20:25:12.983Z,23.10
2023-03-17T20:27:43.036Z,25.93
2023-03-17T20:30:13.306Z,23.17
2023-03-17T20:32:41.839Z,20.83
2023-03-17T20:35:11.789Z,22.67
2023-03-17T20:37:40.480Z,17.67
2023-03-17T20:40:10.827Z,18.27
2023-03-17T20:42:39.688Z,19.57
2023-03-17T20:45:10.276Z,20.97
2023-03-17T20:47:38.695Z,23.77
2023-03-17T20:50:08.900Z,23.83
2023-03-17T20:52:38.202Z,20.33
2023-03-17T20:55:08.513Z,19.13
2023-03-17T20:57:37.971Z,15.83
2023-03-17T21:00:10.518Z,18.63
2023-03-17T21:02:39.015Z,19.67
2023-03-17T21:05:07.955Z,21.90
2023-03-17T21:07:36.544Z,17.67
2023-03-17T21:10:05.233Z,12.43
2023-03-17T21:12:33.608Z,16.00
2023-03-17T21:15:02.025Z,15.70
2023-03-17T21:17:32.619Z,15.23
2023-03-17T21:20:01.832Z,13.23
2023-03-17T21:22:31.799Z,17.13
2023-03-17T21:25:00.458Z,18.37
2023-03-17T21:27:30.064Z,16.67
2023-03-17T21:29:58.589Z,17.73
2023-03-17T21:32:27.129Z,15.33
2023-03-17T21:34:57.055Z,15.60
2023-03-17T21:37:25.626Z,17.90
2023-03-17T21:39:54.246Z,14.93
2023-03-17T21:42:22.694Z,13.80
2023-03-17T21:44:52.095Z,14.10
2023-03-17T21:47:20.709Z,16.90
2023-03-17T21:49:49.806Z,13.40
2023-03-17T21:52:20.967Z,22.40
2023-03-17T21:54:50.409Z,22.07
2023-03-17T21:57:18.841Z,19.17
2023-03-17T21:59:47.657Z,16.87
2023-03-17T22:02:17.621Z,18.80
2023-03-17T22:04:46.966Z,19.37
2023-03-17T22:07:16.607Z,15.30
2023-03-17T22:09:47.086Z,16.50
2023-03-17T22:12:15.694Z,19.17
2023-03-17T22:14:44.259Z,18.07
2023-03-17T22:17:13.198Z,20.33
2023-03-17T22:19:44.015Z,19.60
2023-03-17T22:22:12.864Z,16.40
2023-03-17T22:24:41.784Z,13.90
2023-03-17T22:27:11.691Z,20.20
2023-03-17T22:29:40.156Z,20.13
2023-03-17T22:32:09.585Z,17.27
2023-03-17T22:34:38.682Z,17.27
2023-03-17T22:37:07.667Z,19.80
2023-03-17T22:39:36.037Z,19.03
2023-03-17T22:42:04.634Z,19.17
2023-03-17T22:44:34.508Z,20.03
2023-03-17T22:47:02.912Z,32.23
2023-03-17T22:49:31.454Z,14.20
2023-03-17T22:51:59.848Z,15.10
2023-03-17T22:54:28.249Z,18.40
2023-03-17T22:56:57.043Z,21.90
2023-03-17T22:59:25.530Z,19.47
2023-03-17T23:01:55.638Z,18.83
2023-03-17T23:04:24.594Z,17.10
2023-03-17T23:06:53.531Z,17.43
2023-03-17T23:09:23.153Z,14.77
2023-03-17T23:11:51.714Z,25.50
2023-03-17T23:14:20.152Z,17.80
2023-03-17T23:16:48.777Z,18.20
2023-03-17T23:19:18.612Z,13.70
2023-03-17T23:21:47.380Z,14.90
2023-03-17T23:24:15.690Z,14.30
2023-03-17T23:26:44.578Z,16.87
2023-03-17T23:29:13.162Z,12.63
2023-03-17T23:31:41.696Z,13.90
2023-03-17T23:34:10.824Z,16.97
2023-03-17T23:36:40.686Z,20.03
2023-03-17T23:39:10.258Z,11.70
2023-03-17T23:41:39.198Z,16.20
2023-03-17T23:44:07.970Z,17.87
2023-03-17T23:46:36.665Z,15.33
2023-03-17T23:49:07.243Z,10.90
2023-03-17T23:51:36.087Z,10.13
2023-03-17T23:54:07.759Z,13.43
2023-03-17T23:56:36.302Z,11.97
2023-03-17T23:59:07.466Z,10.60
